Thunder radar more information blitzortung!


Radar de pluja more information rain snow radar


Visita la nostra xarxa de llocs de meteo:

Template documentation
and downloads

And another site



No particular awareness of the weather is required.    There are no Weather-warnings

Pagina Historial Weather Underground text

Diari Resum Juny 6, 2017 Unitats:  Mètric    Imperial   Tant
« Previous Dia
SegĂźent Dia »
Diari Setmana Mensual Anual Personalitzada
  Maxima: Minima: Media:
Temperatura: 30.1 °C 17.0 °C 22.9 °C
Punt de rosada: 15.5 °C 10.6 °C 13.7 °C
Humitat: 81 % 33 % 58 %
Wind Speed: 32.0 km/h 0.0 km/h 10.2 km/h
RĂ fegues de vent: 32.0 km/h - -
Vent:- - SSE
Pression baro: 1018.8 hPa 1010.7 hPa -
Precipitacions: 0.0 mm    
Historical Graphs
 
 
Dades de taula per Juny 6, 2017
Temps Temperatura Punt de rosada Pression baro Vent Wind Speed RĂ fegues de vent Humitat Rainfall Rate (Hourly)
00:01 17.5 °C 10.6 °C 1011.7 hPa SW 7.4 km/h 7.4 km/h 64 % 0.0 mm
00:06 17.5 °C 10.6 °C 1011.7 hPa WSW 7.4 km/h 7.4 km/h 64 % 0.0 mm
03:05 17.5 °C 12.2 °C 1010.7 hPa SW 3.2 km/h 4.8 km/h 71 % 0.0 mm
03:15 18.0 °C 12.4 °C 1010.7 hPa SW 3.2 km/h 4.8 km/h 70 % 0.0 mm
03:25 18.6 °C 12.8 °C 1010.7 hPa SW 1.6 km/h 6.4 km/h 69 % 0.0 mm
03:35 19.0 °C 12.9 °C 1010.7 hPa SW 3.2 km/h 4.8 km/h 68 % 0.0 mm
03:45 19.4 °C 13.6 °C 1010.7 hPa SW 3.2 km/h 4.8 km/h 69 % 0.0 mm
03:55 19.5 °C 13.4 °C 1010.7 hPa SW 4.8 km/h 6.4 km/h 68 % 0.0 mm
04:05 20.0 °C 13.4 °C 1010.7 hPa WSW 4.8 km/h 6.4 km/h 66 % 0.0 mm
04:15 20.8 °C 14.2 °C 1011.7 hPa SW 4.8 km/h 4.8 km/h 66 % 0.0 mm
04:25 21.1 °C 14.3 °C 1011.7 hPa SW 3.2 km/h 6.4 km/h 65 % 0.0 mm
04:35 22.1 °C 14.7 °C 1011.7 hPa SSW 3.2 km/h 3.2 km/h 63 % 0.0 mm
04:45 21.9 °C 14.8 °C 1011.7 hPa SW 3.2 km/h 8.0 km/h 64 % 0.0 mm
04:55 21.9 °C 14.3 °C 1011.7 hPa WNW 3.2 km/h 4.8 km/h 62 % 0.0 mm
05:05 22.2 °C 13.8 °C 1011.7 hPa NNE 4.8 km/h 4.8 km/h 59 % 0.0 mm
05:15 22.6 °C 14.2 °C 1011.7 hPa ENE 3.2 km/h 4.8 km/h 59 % 0.0 mm
05:25 23.0 °C 13.4 °C 1011.7 hPa East 3.2 km/h 6.4 km/h 55 % 0.0 mm
10:33 23.6 °C 13.7 °C 1011.7 hPa East 7.4 km/h 7.4 km/h 54 % 0.0 mm
10:38 23.5 °C 13.9 °C 1011.7 hPa NNE 6.4 km/h 6.4 km/h 55 % 0.0 mm
10:43 23.3 °C 13.4 °C 1011.7 hPa East 5.8 km/h 5.8 km/h 54 % 0.0 mm
10:48 23.6 °C 14.1 °C 1011.7 hPa NE 5.6 km/h 5.6 km/h 55 % 0.0 mm
10:53 24.1 °C 13.9 °C 1011.7 hPa ESE 5.6 km/h 5.6 km/h 53 % 0.0 mm
10:58 24.3 °C 14.1 °C 1011.7 hPa NE 3.7 km/h 3.7 km/h 53 % 0.0 mm
11:03 24.4 °C 13.6 °C 1011.7 hPa ESE 5.8 km/h 5.8 km/h 51 % 0.0 mm
11:08 24.7 °C 14.2 °C 1011.7 hPa WSW 3.9 km/h 3.9 km/h 52 % 0.0 mm
11:13 25.5 °C 14.3 °C 1011.7 hPa SW 3.9 km/h 3.9 km/h 50 % 0.0 mm
11:18 26.0 °C 14.8 °C 1012.8 hPa WSW 4.7 km/h 4.7 km/h 50 % 0.0 mm
11:23 26.1 °C 14.6 °C 1012.8 hPa NNW 5.6 km/h 5.6 km/h 49 % 0.0 mm
11:28 26.8 °C 15.2 °C 1012.8 hPa SSW 6.1 km/h 6.1 km/h 49 % 0.0 mm
11:33 26.9 °C 14.9 °C 1011.7 hPa West 5.6 km/h 5.6 km/h 48 % 0.0 mm
11:38 27.0 °C 14.7 °C 1011.7 hPa WSW 5.6 km/h 5.6 km/h 47 % 0.0 mm
11:43 26.7 °C 14.4 °C 1011.7 hPa WSW 14.8 km/h 14.8 km/h 47 % 0.0 mm
11:48 27.0 °C 14.1 °C 1011.7 hPa SW 5.6 km/h 5.6 km/h 45 % 0.0 mm
11:53 27.2 °C 14.2 °C 1011.7 hPa West 5.6 km/h 5.6 km/h 45 % 0.0 mm
11:58 27.4 °C 14.4 °C 1011.7 hPa SW 4.2 km/h 4.2 km/h 45 % 0.0 mm
12:03 27.1 °C 13.4 °C 1010.7 hPa WSW 11.1 km/h 11.1 km/h 43 % 0.0 mm
12:08 26.9 °C 13.3 °C 1010.7 hPa WNW 7.4 km/h 7.4 km/h 43 % 0.0 mm
12:13 27.5 °C 13.8 °C 1010.7 hPa SSW 3.7 km/h 3.7 km/h 43 % 0.0 mm
12:18 27.6 °C 13.9 °C 1010.7 hPa WSW 5.6 km/h 5.6 km/h 43 % 0.0 mm
12:23 27.9 °C 13.8 °C 1010.7 hPa ESE 3.7 km/h 3.9 km/h 42 % 0.0 mm
12:28 27.9 °C 13.8 °C 1010.7 hPa SW 7.4 km/h 7.4 km/h 42 % 0.0 mm
12:33 27.8 °C 13.7 °C 1010.7 hPa WSW 8.7 km/h 8.7 km/h 42 % 0.0 mm
12:38 27.8 °C 12.9 °C 1010.7 hPa SSW 11.1 km/h 11.1 km/h 40 % 0.0 mm
12:43 28.1 °C 13.6 °C 1010.7 hPa SSW 10.3 km/h 10.3 km/h 41 % 0.0 mm
12:48 28.5 °C 13.6 °C 1010.7 hPa WSW 5.8 km/h 5.8 km/h 40 % 0.0 mm
12:53 28.2 °C 12.9 °C 1010.7 hPa ESE 3.7 km/h 3.7 km/h 39 % 0.0 mm
12:54 28.1 °C 12.8 °C 1010.7 hPa ESE 3.7 km/h 3.7 km/h 39 % 0.0 mm
12:59 28.1 °C 13.2 °C 1010.7 hPa West 6.1 km/h 6.1 km/h 40 % 0.0 mm
13:04 28.7 °C 13.8 °C 1010.7 hPa West 9.3 km/h 9.3 km/h 40 % 0.0 mm
13:09 28.8 °C 13.8 °C 1010.7 hPa SW 7.4 km/h 7.4 km/h 40 % 0.0 mm
13:10 29.0 °C 13.7 °C 1010.7 hPa WSW 6.4 km/h 6.4 km/h 39 % 0.0 mm
13:15 29.2 °C 13.4 °C 1010.7 hPa NW 7.4 km/h 7.4 km/h 38 % 0.0 mm
13:20 28.6 °C 13.3 °C 1010.7 hPa NNW 5.6 km/h 5.6 km/h 39 % 0.0 mm
13:25 28.4 °C 13.1 °C 1010.7 hPa SSE 5.8 km/h 5.8 km/h 39 % 0.0 mm
13:30 28.4 °C 12.7 °C 1010.7 hPa NNW 3.7 km/h 3.9 km/h 38 % 0.0 mm
13:35 28.2 °C 12.6 °C 1010.7 hPa NW 5.0 km/h 5.0 km/h 38 % 0.0 mm
13:40 28.2 °C 12.6 °C 1010.7 hPa WNW 4.2 km/h 4.2 km/h 38 % 0.0 mm
13:45 28.0 °C 12.3 °C 1010.7 hPa ESE 3.7 km/h 3.7 km/h 38 % 0.0 mm
13:50 28.7 °C 13.4 °C 1010.7 hPa SW 7.4 km/h 7.4 km/h 39 % 0.0 mm
13:55 29.2 °C 13.0 °C 1010.7 hPa SW 5.6 km/h 5.6 km/h 37 % 0.0 mm
14:00 28.9 °C 12.7 °C 1010.7 hPa WSW 7.4 km/h 7.4 km/h 37 % 0.0 mm
14:05 29.4 °C 12.8 °C 1010.7 hPa South 9.3 km/h 9.3 km/h 36 % 0.0 mm
14:07 29.6 °C 12.9 °C 1010.7 hPa West 9.3 km/h 9.3 km/h 36 % 0.0 mm
14:12 29.4 °C 12.3 °C 1010.7 hPa North 7.4 km/h 7.4 km/h 35 % 0.0 mm
14:17 29.8 °C 13.1 °C 1010.7 hPa SW 13.0 km/h 13.0 km/h 36 % 0.0 mm
14:22 29.4 °C 11.4 °C 1011.7 hPa ESE 11.1 km/h 11.1 km/h 33 % 0.0 mm
14:27 30.1 °C 12.5 °C 1011.7 hPa West 9.3 km/h 9.3 km/h 34 % 0.0 mm
14:32 30.1 °C 12.1 °C 1011.7 hPa WSW 7.4 km/h 7.4 km/h 33 % 0.0 mm
14:37 29.4 °C 11.4 °C 1010.7 hPa SW 9.3 km/h 9.3 km/h 33 % 0.0 mm
14:42 29.3 °C 11.3 °C 1010.7 hPa West 9.3 km/h 9.3 km/h 33 % 0.0 mm
14:47 29.1 °C 11.2 °C 1010.7 hPa WNW 3.7 km/h 3.7 km/h 33 % 0.0 mm
14:52 29.0 °C 11.1 °C 1011.7 hPa SSW 7.4 km/h 7.4 km/h 33 % 0.0 mm
14:57 28.8 °C 11.4 °C 1011.7 hPa ENE 3.7 km/h 3.7 km/h 34 % 0.0 mm
15:02 28.9 °C 11.4 °C 1011.7 hPa SW 3.7 km/h 3.7 km/h 34 % 0.0 mm
15:07 28.7 °C 10.8 °C 1011.7 hPa NE 5.6 km/h 5.6 km/h 33 % 0.0 mm
15:12 28.5 °C 11.1 °C 1011.7 hPa NW 5.6 km/h 5.6 km/h 34 % 0.0 mm
15:17 28.5 °C 11.6 °C 1011.7 hPa ENE 11.1 km/h 11.1 km/h 35 % 0.0 mm
15:22 27.6 °C 10.8 °C 1010.7 hPa ESE 31.5 km/h 31.5 km/h 35 % 0.0 mm
15:27 26.6 °C 11.5 °C 1010.7 hPa NNE 32.0 km/h 32.0 km/h 39 % 0.0 mm
15:32 25.3 °C 10.7 °C 1010.7 hPa East 13.0 km/h 13.0 km/h 40 % 0.0 mm
15:37 24.8 °C 11.0 °C 1010.7 hPa ESE 16.9 km/h 16.9 km/h 42 % 0.0 mm
15:42 24.6 °C 11.6 °C 1010.7 hPa East 20.1 km/h 20.1 km/h 44 % 0.0 mm
15:47 24.7 °C 11.9 °C 1010.7 hPa ENE 13.0 km/h 13.0 km/h 45 % 0.0 mm
15:52 24.5 °C 12.1 °C 1011.7 hPa East 20.9 km/h 20.9 km/h 46 % 0.0 mm
15:57 24.2 °C 12.2 °C 1011.7 hPa ENE 16.7 km/h 16.7 km/h 47 % 0.0 mm
16:02 23.9 °C 11.9 °C 1011.7 hPa NNE 13.0 km/h 13.0 km/h 47 % 0.0 mm
16:07 24.1 °C 12.4 °C 1011.7 hPa NNW 16.7 km/h 16.7 km/h 48 % 0.0 mm
16:12 24.3 °C 12.6 °C 1011.7 hPa NNE 20.4 km/h 20.4 km/h 48 % 0.0 mm
16:17 24.4 °C 12.7 °C 1011.7 hPa East 16.1 km/h 16.1 km/h 48 % 0.0 mm
16:22 24.2 °C 12.8 °C 1011.7 hPa East 21.2 km/h 21.2 km/h 49 % 0.0 mm
16:27 24.2 °C 12.8 °C 1011.7 hPa NNE 14.8 km/h 14.8 km/h 49 % 0.0 mm
16:32 24.0 °C 13.2 °C 1011.7 hPa NE 22.2 km/h 22.2 km/h 51 % 0.0 mm
16:37 24.1 °C 13.3 °C 1011.7 hPa ENE 20.4 km/h 20.4 km/h 51 % 0.0 mm
16:42 24.2 °C 13.7 °C 1011.7 hPa ENE 17.5 km/h 17.5 km/h 52 % 0.0 mm
16:47 23.9 °C 13.4 °C 1011.7 hPa NNW 16.7 km/h 16.7 km/h 52 % 0.0 mm
16:52 23.7 °C 13.6 °C 1011.7 hPa East 16.7 km/h 16.7 km/h 53 % 0.0 mm
16:57 24.0 °C 13.8 °C 1011.7 hPa NNE 14.8 km/h 14.8 km/h 53 % 0.0 mm
17:02 23.9 °C 14.0 °C 1011.7 hPa NE 16.7 km/h 16.7 km/h 54 % 0.0 mm
17:07 23.7 °C 14.4 °C 1012.8 hPa ENE 14.8 km/h 14.8 km/h 56 % 0.0 mm
17:12 23.5 °C 14.5 °C 1012.8 hPa ESE 16.7 km/h 16.7 km/h 57 % 0.0 mm
17:17 23.4 °C 14.7 °C 1012.8 hPa ENE 16.7 km/h 16.7 km/h 58 % 0.0 mm
17:22 23.6 °C 15.1 °C 1012.8 hPa East 16.7 km/h 16.7 km/h 59 % 0.0 mm
17:27 23.6 °C 15.1 °C 1012.8 hPa ENE 14.8 km/h 14.8 km/h 59 % 0.0 mm
17:32 23.4 °C 15.2 °C 1012.8 hPa East 14.8 km/h 14.8 km/h 60 % 0.0 mm
17:37 23.2 °C 15.3 °C 1012.8 hPa North 24.1 km/h 24.1 km/h 61 % 0.0 mm
17:42 23.1 °C 15.4 °C 1012.8 hPa ENE 20.4 km/h 20.4 km/h 62 % 0.0 mm
17:47 22.8 °C 15.4 °C 1012.8 hPa ENE 24.1 km/h 24.1 km/h 63 % 0.0 mm
17:52 22.9 °C 15.5 °C 1012.8 hPa ESE 16.7 km/h 16.7 km/h 63 % 0.0 mm
17:57 22.8 °C 15.1 °C 1012.8 hPa East 14.8 km/h 14.8 km/h 62 % 0.0 mm
18:02 22.7 °C 15.1 °C 1012.8 hPa East 24.1 km/h 24.1 km/h 62 % 0.0 mm
18:07 22.4 °C 14.8 °C 1012.8 hPa ENE 14.8 km/h 14.8 km/h 62 % 0.0 mm
18:12 22.5 °C 14.6 °C 1012.8 hPa ESE 16.7 km/h 16.7 km/h 61 % 0.0 mm
18:17 22.3 °C 14.4 °C 1012.8 hPa East 17.5 km/h 17.5 km/h 61 % 0.0 mm
18:22 22.1 °C 14.2 °C 1013.8 hPa East 24.1 km/h 24.1 km/h 61 % 0.0 mm
18:27 22.2 °C 14.3 °C 1013.8 hPa ESE 12.6 km/h 12.6 km/h 61 % 0.0 mm
18:32 22.2 °C 14.3 °C 1013.8 hPa SE 16.7 km/h 16.7 km/h 61 % 0.0 mm
18:37 22.1 °C 14.2 °C 1013.8 hPa ENE 14.8 km/h 14.8 km/h 61 % 0.0 mm
18:42 22.2 °C 14.3 °C 1013.8 hPa ESE 13.0 km/h 13.0 km/h 61 % 0.0 mm
18:47 22.1 °C 14.2 °C 1013.8 hPa ENE 20.9 km/h 20.9 km/h 61 % 0.0 mm
18:52 21.8 °C 14.2 °C 1013.8 hPa ESE 19.8 km/h 19.8 km/h 62 % 0.0 mm
18:57 21.7 °C 14.3 °C 1013.8 hPa ESE 17.2 km/h 17.2 km/h 63 % 0.0 mm
19:02 21.4 °C 14.3 °C 1013.8 hPa SE 22.2 km/h 22.2 km/h 64 % 0.0 mm
19:07 21.2 °C 14.3 °C 1012.8 hPa ESE 15.8 km/h 15.8 km/h 65 % 0.0 mm
19:12 21.3 °C 14.4 °C 1012.8 hPa ESE 18.5 km/h 18.5 km/h 65 % 0.0 mm
19:15 18.9 °C 14.2 °C 1011.7 hPa SE 3.2 km/h 3.2 km/h 74 % 0.0 mm
19:17 21.0 °C 14.4 °C 1012.8 hPa ESE 20.4 km/h 20.4 km/h 66 % 0.0 mm
19:20 20.9 °C 14.3 °C 1012.8 hPa East 20.4 km/h 20.4 km/h 66 % 0.0 mm
19:25 20.8 °C 14.4 °C 1012.8 hPa SE 16.7 km/h 16.7 km/h 67 % 0.0 mm
19:30 20.8 °C 14.4 °C 1012.8 hPa ESE 20.4 km/h 20.4 km/h 67 % 0.0 mm
19:35 20.8 °C 14.4 °C 1013.8 hPa NE 13.0 km/h 13.0 km/h 67 % 0.0 mm
19:40 20.7 °C 14.3 °C 1013.8 hPa ESE 20.4 km/h 20.4 km/h 67 % 0.0 mm
19:45 20.6 °C 14.3 °C 1013.8 hPa East 9.5 km/h 9.5 km/h 67 % 0.0 mm
19:50 20.4 °C 14.1 °C 1013.8 hPa ESE 16.7 km/h 16.7 km/h 67 % 0.0 mm
19:55 20.5 °C 14.4 °C 1013.8 hPa ESE 13.0 km/h 13.0 km/h 68 % 0.0 mm
20:00 20.5 °C 14.4 °C 1013.8 hPa ESE 13.0 km/h 13.0 km/h 68 % 0.0 mm
20:05 20.4 °C 14.3 °C 1013.8 hPa ESE 22.2 km/h 22.2 km/h 68 % 0.0 mm
20:10 20.3 °C 14.2 °C 1013.8 hPa ENE 14.8 km/h 14.8 km/h 68 % 0.0 mm
20:15 20.2 °C 14.1 °C 1013.8 hPa ESE 20.1 km/h 20.1 km/h 68 % 0.0 mm
20:20 20.1 °C 14.2 °C 1014.8 hPa ESE 14.8 km/h 14.8 km/h 69 % 0.0 mm
20:25 20.0 °C 14.1 °C 1014.8 hPa East 11.1 km/h 11.1 km/h 69 % 0.0 mm
20:30 20.0 °C 14.1 °C 1014.8 hPa SE 12.2 km/h 12.2 km/h 69 % 0.0 mm
20:35 20.0 °C 14.1 °C 1014.8 hPa ESE 18.3 km/h 18.3 km/h 69 % 0.0 mm
20:40 19.9 °C 14.5 °C 1014.8 hPa ESE 14.8 km/h 14.8 km/h 71 % 0.0 mm
20:45 19.9 °C 14.5 °C 1014.8 hPa ESE 5.6 km/h 5.6 km/h 71 % 0.0 mm
20:50 19.9 °C 14.3 °C 1014.8 hPa ESE 11.1 km/h 11.1 km/h 70 % 0.0 mm
20:55 19.8 °C 14.4 °C 1014.8 hPa SE 9.3 km/h 9.3 km/h 71 % 0.0 mm
21:00 19.9 °C 14.5 °C 1014.8 hPa ESE 12.6 km/h 12.6 km/h 71 % 0.0 mm
21:05 19.7 °C 14.3 °C 1014.8 hPa ESE 14.8 km/h 14.8 km/h 71 % 0.0 mm
21:10 19.6 °C 14.4 °C 1014.8 hPa East 11.1 km/h 11.1 km/h 72 % 0.0 mm
21:15 19.6 °C 14.4 °C 1014.8 hPa East 13.0 km/h 13.0 km/h 72 % 0.0 mm
21:20 19.5 °C 14.3 °C 1015.8 hPa ESE 13.0 km/h 13.0 km/h 72 % 0.0 mm
21:25 19.5 °C 14.3 °C 1015.8 hPa ENE 14.8 km/h 14.8 km/h 72 % 0.0 mm
21:30 19.4 °C 14.2 °C 1015.8 hPa ENE 9.3 km/h 9.3 km/h 72 % 0.0 mm
21:35 19.4 °C 14.4 °C 1015.8 hPa ESE 9.3 km/h 9.3 km/h 73 % 0.0 mm
21:40 19.3 °C 14.3 °C 1015.8 hPa ESE 14.8 km/h 14.8 km/h 73 % 0.0 mm
21:45 19.3 °C 14.3 °C 1015.8 hPa East 9.3 km/h 9.3 km/h 73 % 0.0 mm
21:50 19.3 °C 14.3 °C 1015.8 hPa SSE 13.0 km/h 13.0 km/h 73 % 0.0 mm
21:52 19.3 °C 14.3 °C 1015.8 hPa East 11.1 km/h 11.1 km/h 73 % 0.0 mm
21:55 17.3 °C 13.2 °C 1017.8 hPa WSW 1.6 km/h 3.2 km/h 77 % 0.0 mm
21:57 19.3 °C 14.3 °C 1015.8 hPa ESE 7.4 km/h 7.4 km/h 73 % 0.0 mm
22:02 19.3 °C 14.6 °C 1015.8 hPa SSE 7.4 km/h 7.4 km/h 74 % 0.0 mm
22:05 17.3 °C 13.2 °C 1017.8 hPa WSW 1.6 km/h 3.2 km/h 77 % 0.0 mm
22:07 19.3 °C 14.6 °C 1015.8 hPa ESE 9.3 km/h 9.3 km/h 74 % 0.0 mm
22:12 19.3 °C 14.6 °C 1015.8 hPa SSW 7.4 km/h 7.4 km/h 74 % 0.0 mm
22:15 17.3 °C 13.4 °C 1017.8 hPa Calm   3.2 km/h 78 % 0.0 mm
22:17 19.3 °C 14.3 °C 1015.8 hPa SSE 13.0 km/h 13.0 km/h 73 % 0.0 mm
22:22 19.2 °C 14.4 °C 1015.8 hPa ESE 5.6 km/h 5.6 km/h 74 % 0.0 mm
22:25 17.3 °C 13.4 °C 1017.8 hPa West 1.6 km/h 1.6 km/h 78 % 0.0 mm
22:27 19.2 °C 14.4 °C 1015.8 hPa ESE 5.6 km/h 5.6 km/h 74 % 0.0 mm
22:32 19.2 °C 14.4 °C 1015.8 hPa ENE 7.4 km/h 7.4 km/h 74 % 0.0 mm
22:35 17.3 °C 13.6 °C 1017.8 hPa West 1.6 km/h 1.6 km/h 79 % 0.0 mm
22:37 19.1 °C 14.3 °C 1015.8 hPa ESE 7.4 km/h 7.4 km/h 74 % 0.0 mm
22:42 19.1 °C 14.3 °C 1015.8 hPa ESE 9.3 km/h 9.3 km/h 74 % 0.0 mm
22:45 17.4 °C 13.7 °C 1017.8 hPa Calm   1.6 km/h 79 % 0.0 mm
22:47 19.1 °C 14.3 °C 1015.8 hPa ESE 13.0 km/h 13.0 km/h 74 % 0.0 mm
22:52 19.0 °C 14.3 °C 1016.8 hPa ESE 6.4 km/h 6.4 km/h 74 % 0.0 mm
22:55 17.3 °C 13.6 °C 1017.8 hPa WSW 3.2 km/h 3.2 km/h 79 % 0.0 mm
22:57 19.0 °C 14.3 °C 1016.8 hPa ESE 8.7 km/h 8.7 km/h 74 % 0.0 mm
23:02 19.0 °C 14.3 °C 1016.8 hPa ENE 9.3 km/h 9.3 km/h 74 % 0.0 mm
23:05 17.1 °C 13.6 °C 1017.8 hPa Calm   3.2 km/h 80 % 0.0 mm
23:07 19.0 °C 14.3 °C 1016.8 hPa ESE 9.3 km/h 9.3 km/h 74 % 0.0 mm
23:12 19.0 °C 14.3 °C 1016.8 hPa SE 7.4 km/h 7.4 km/h 74 % 0.0 mm
23:15 17.1 °C 13.6 °C 1017.8 hPa Calm   3.2 km/h 80 % 0.0 mm
23:17 19.0 °C 14.3 °C 1016.8 hPa ESE 9.0 km/h 9.0 km/h 74 % 0.0 mm
23:22 19.0 °C 14.3 °C 1016.8 hPa ESE 11.1 km/h 11.1 km/h 74 % 0.0 mm
23:25 17.1 °C 13.6 °C 1018.8 hPa Calm   1.6 km/h 80 % 0.0 mm
23:27 18.9 °C 14.4 °C 1016.8 hPa ENE 7.4 km/h 7.4 km/h 75 % 0.0 mm
23:32 18.9 °C 14.4 °C 1016.8 hPa ESE 9.3 km/h 9.3 km/h 75 % 0.0 mm
23:35 17.0 °C 13.7 °C 1018.8 hPa Calm     81 % 0.0 mm
23:37 18.9 °C 14.4 °C 1016.8 hPa NNE 5.6 km/h 5.6 km/h 75 % 0.0 mm
23:42 19.0 °C 14.1 °C 1016.8 hPa SE 3.7 km/h 3.7 km/h 73 % 0.0 mm
23:45 17.1 °C 13.8 °C 1018.8 hPa Calm     81 % 0.0 mm
23:47 19.0 °C 14.3 °C 1016.8 hPa ESE 7.4 km/h 7.4 km/h 74 % 0.0 mm
23:52 19.0 °C 14.1 °C 1017.8 hPa ESE 3.7 km/h 3.7 km/h 73 % 0.0 mm
23:55 17.0 °C 13.7 °C 1018.8 hPa Calm     81 % 0.0 mm
23:57 19.0 °C 14.1 °C 1017.8 hPa East 5.6 km/h 5.6 km/h 73 % 0.0 mm
23:58 19.0 °C 14.1 °C 1017.8 hPa South 5.6 km/h 5.6 km/h 73 % 0.0 mm
Meteo Sesrovires
Elogis d' Weather Underground - 3.5 mb

Guio original per  Jim McMurry - jmcmurry@mwt.net Adaptat per a la plantilla per  Wim van der Kuil - Leuven-Template.eu

Trobareu la nostra informacio del temps tambe a:

Weather Underground

AWEKAS